Chesapeake, VA

8:13 PM EDT on June 02, 2015 (GMT -0400)
Norfolk International | | Change Station
CLOSE
Current Station
Airport
Location: Norfolk,
Elevation: 30 ft
Nearby Weather Stations

Elev 30 ft 36.90 °N, 76.19 °W | Updated 22 minutes ago

Overcast
Overcast
66 °F
Feels Like 66 °F
N
10
Wind Variable Wind from ENE

Today
High -- | Low -- °F
--% Chance of Precip.
Yesterday
High -- | Low -- °F
Precip. -- in
5:47 AM 8:18 PM
Full, 100% visible
Pressure 30.01 in
Visibility 7.0 miles
Clouds Overcast 500 ft
Dew Point 63 °F
Humidity 90%
Rainfall 3.01 in
Snow Depth Not available.
UV 0 out of 12
Pollen 4.20 out of 12
Air Quality Not available.
Flu Activity Sporadic
METAR KORF 022351Z 07009KT 7SM OVC005 19/17 A3001 RMK AO2 SLP162 60176 T01890172 10217 20189 53008 $

More Conditions Fewer Conditions

Pressure 30.01 in
Visibility 7.0 miles
Clouds Overcast 500 ft
Dew Point 63 °F
Humidity 90%
Rainfall 3.01 in
Snow Depth Not available.
UV 0 out of 12
Pollen 4.20 out of 12
Air Quality Not available.
Flu Activity Sporadic
METAR KORF 022351Z 07009KT 7SM OVC005 19/17 A3001 RMK AO2 SLP162 60176 T01890172 10217 20189 53008 $

More Conditions Fewer Conditions

10-Day Weather Forecast

×

Almanac

Astronomy

Jun. 02, 2015 Rise Set
Actual Time
Civil Twilight
Nautical Twilight
Astronomical Twilight
Moon
Length of Visible Light
Length of Day
Tomorrow will be .
, % of the Moon is Illuminated

Today's Extremes

State Highs State Lows

Community

WunderPhotos

Upload Photos

1,826,074 photos uploaded!

WunderBlogs® & News

Nearby

Air Quality

  Air Quality AQ Index Pollutant
Not available.

Snow Depth

Station Depth Elevation

Earthquake Activity

City Distance Mag. Time & Date
Minimum magnitude displayed is 2.5.

Coastal Water Temperatures

Place Temperature

Stations

Nearby Weather Stations

Station Location Temp. Windchill Dew Point Humidity Wind Precip. Elev Updated Type